sensor_id;sensor_type;location;lat;lon;timestamp;P1;P2;P0
76383;PMS7003;65204;48.606;7.598;2023-04-29T00:00:22;4.00;4.00;3.50
76383;PMS7003;65204;48.606;7.598;2023-04-29T00:00:52;5.00;5.00;5.00
76383;PMS7003;65204;48.606;7.598;2023-04-29T00:01:22;6.00;5.00;4.25
76383;PMS7003;65204;48.606;7.598;2023-04-29T00:01:53;5.75;5.75;5.25
76383;PMS7003;65204;48.606;7.598;2023-04-29T00:02:28;6.40;5.60;5.40
76383;PMS7003;65204;48.606;7.598;2023-04-29T00:03:00;5.00;5.00;4.40
76383;PMS7003;65204;48.606;7.598;2023-04-29T00:03:30;5.00;5.00;4.25
76383;PMS7003;65204;48.606;7.598;2023-04-29T00:04:01;4.00;4.00;3.75
76383;PMS7003;65204;48.606;7.598;2023-04-29T00:04:31;6.25;5.50;4.25
76383;PMS7003;65204;48.606;7.598;2023-04-29T00:05:02;5.50;5.50;4.75
76383;PMS7003;65204;48.606;7.598;2023-04-29T00:05:34;5.00;5.00;4.40
76383;PMS7003;65204;48.606;7.598;2023-04-29T00:06:04;6.00;6.00;5.00
76383;PMS7003;65204;48.606;7.598;2023-04-29T00:06:35;5.00;5.00;4.00
76383;PMS7003;65204;48.606;7.598;2023-04-29T00:07:06;5.00;5.00;4.00
76383;PMS7003;65204;48.606;7.598;2023-04-29T00:07:37;6.00;6.00;5.00
76383;PMS7003;65204;48.606;7.598;2023-04-29T00:08:08;5.00;5.00;4.00
76383;PMS7003;65204;48.606;7.598;2023-04-29T00:08:38;5.00;5.00;4.50
76383;PMS7003;65204;48.606;7.598;2023-04-29T00:09:09;5.50;5.50;4.00
76383;PMS7003;65204;48.606;7.598;2023-04-29T00:09:40;5.00;5.00;4.00
76383;PMS7003;65204;48.606;7.598;2023-04-29T00:10:10;3.80;3.80;3.20
76383;PMS7003;65204;48.606;7.598;2023-04-29T00:10:43;5.00;5.00;4.20
76383;PMS7003;65204;48.606;7.598;2023-04-29T00:11:14;3.25;3.25;3.00
76383;PMS7003;65204;48.606;7.598;2023-04-29T00:11:44;7.50;5.25;4.00
76383;PMS7003;65204;48.606;7.598;2023-04-29T00:12:16;3.60;3.20;2.80
76383;PMS7003;65204;48.606;7.598;2023-04-29T00:12:47;5.00;5.00;4.00
76383;PMS7003;65204;48.606;7.598;2023-04-29T00:13:18;5.60;5.60;5.00
76383;PMS7003;65204;48.606;7.598;2023-04-29T00:13:49;4.25;4.25;4.00
76383;PMS7003;65204;48.606;7.598;2023-04-29T00:14:19;3.25;3.25;2.75
76383;PMS7003;65204;48.606;7.598;2023-04-29T00:14:50;3.50;3.50;3.25
76383;PMS7003;65204;48.606;7.598;2023-04-29T00:15:20;5.00;5.00;4.00
76383;PMS7003;65204;48.606;7.598;2023-04-29T00:15:50;6.50;4.00;3.75
76383;PMS7003;65204;48.606;7.598;2023-04-29T00:16:21;5.50;5.00;4.00
76383;PMS7003;65204;48.606;7.598;2023-04-29T00:16:52;3.80;3.80;3.60
76383;PMS7003;65204;48.606;7.598;2023-04-29T00:17:22;5.00;5.00;4.25
76383;PMS7003;65204;48.606;7.598;2023-04-29T00:17:52;5.00;5.00;3.75
76383;PMS7003;65204;48.606;7.598;2023-04-29T00:18:23;5.25;4.00;4.00
76383;PMS7003;65204;48.606;7.598;2023-04-29T00:18:53;4.00;4.00;3.00
76383;PMS7003;65204;48.606;7.598;2023-04-29T00:19:24;4.25;4.25;3.75
76383;PMS7003;65204;48.606;7.598;2023-04-29T00:19:54;6.00;4.50;3.75
76383;PMS7003;65204;48.606;7.598;2023-04-29T00:20:24;5.25;5.00;4.25
76383;PMS7003;65204;48.606;7.598;2023-04-29T00:20:54;5.50;4.50;4.00
76383;PMS7003;65204;48.606;7.598;2023-04-29T00:21:25;3.25;3.25;3.00
76383;PMS7003;65204;48.606;7.598;2023-04-29T00:21:56;4.60;4.60;4.20
76383;PMS7003;65204;48.606;7.598;2023-04-29T00:22:26;5.25;5.25;4.00
76383;PMS7003;65204;48.606;7.598;2023-04-29T00:22:57;5.00;5.00;4.25
76383;PMS7003;65204;48.606;7.598;2023-04-29T00:23:27;5.00;5.00;4.00
76383;PMS7003;65204;48.606;7.598;2023-04-29T00:23:57;4.00;4.00;3.00
76383;PMS7003;65204;48.606;7.598;2023-04-29T00:24:29;5.00;5.00;4.40
76383;PMS7003;65204;48.606;7.598;2023-04-29T00:24:59;5.50;4.75;4.25
76383;PMS7003;65204;48.606;7.598;2023-04-29T00:25:29;4.50;4.50;4.00
76383;PMS7003;65204;48.606;7.598;2023-04-29T00:26:00;4.00;4.00;4.00
76383;PMS7003;65204;48.606;7.598;2023-04-29T00:26:30;5.75;5.75;4.75
76383;PMS7003;65204;48.606;7.598;2023-04-29T00:27:01;3.50;3.50;3.50
76383;PMS7003;65204;48.606;7.598;2023-04-29T00:27:31;8.00;5.50;5.00
76383;PMS7003;65204;48.606;7.598;2023-04-29T00:28:04;5.25;5.25;5.00
76383;PMS7003;65204;48.606;7.598;2023-04-29T00:28:35;5.00;5.00;4.20
76383;PMS7003;65204;48.606;7.598;2023-04-29T00:29:06;5.00;5.00;4.00
76383;PMS7003;65204;48.606;7.598;2023-04-29T00:29:36;4.25;4.25;4.00
76383;PMS7003;65204;48.606;7.598;2023-04-29T00:30:06;5.25;4.75;4.00
76383;PMS7003;65204;48.606;7.598;2023-04-29T00:30:37;5.50;5.50;4.75
76383;PMS7003;65204;48.606;7.598;2023-04-29T00:31:07;5.00;4.00;3.75
76383;PMS7003;65204;48.606;7.598;2023-04-29T00:31:38;3.00;3.00;3.00
76383;PMS7003;65204;48.606;7.598;2023-04-29T00:32:08;7.75;5.25;4.50
76383;PMS7003;65204;48.606;7.598;2023-04-29T00:32:38;4.00;4.00;4.00
76383;PMS7003;65204;48.606;7.598;2023-04-29T00:33:09;4.00;4.00;4.00
76383;PMS7003;65204;48.606;7.598;2023-04-29T00:33:39;4.00;4.00;3.75
76383;PMS7003;65204;48.606;7.598;2023-04-29T00:34:10;5.50;5.50;4.50
76383;PMS7003;65204;48.606;7.598;2023-04-29T00:34:40;6.00;6.00;5.00
76383;PMS7003;65204;48.606;7.598;2023-04-29T00:35:11;4.00;4.00;3.80
76383;PMS7003;65204;48.606;7.598;2023-04-29T00:35:41;7.50;5.75;4.50
76383;PMS7003;65204;48.606;7.598;2023-04-29T00:36:12;4.00;4.00;4.00
76383;PMS7003;65204;48.606;7.598;2023-04-29T00:36:42;6.00;5.00;4.00
76383;PMS7003;65204;48.606;7.598;2023-04-29T00:37:13;5.25;5.25;5.00
76383;PMS7003;65204;48.606;7.598;2023-04-29T00:37:43;7.75;5.50;4.75
76383;PMS7003;65204;48.606;7.598;2023-04-29T00:38:13;4.00;4.00;3.50
76383;PMS7003;65204;48.606;7.598;2023-04-29T00:38:44;5.00;5.00;4.00
76383;PMS7003;65204;48.606;7.598;2023-04-29T00:39:14;6.25;6.25;5.75
76383;PMS7003;65204;48.606;7.598;2023-04-29T00:39:45;5.00;5.00;4.00
76383;PMS7003;65204;48.606;7.598;2023-04-29T00:40:15;4.00;4.00;3.75
76383;PMS7003;65204;48.606;7.598;2023-04-29T00:40:46;6.00;5.60;4.80
76383;PMS7003;65204;48.606;7.598;2023-04-29T00:41:17;6.75;5.00;5.00
76383;PMS7003;65204;48.606;7.598;2023-04-29T00:41:47;7.50;7.25;6.00
76383;PMS7003;65204;48.606;7.598;2023-04-29T00:42:18;7.25;5.75;4.75
76383;PMS7003;65204;48.606;7.598;2023-04-29T00:42:49;6.00;6.00;5.00
76383;PMS7003;65204;48.606;7.598;2023-04-29T00:43:20;5.75;5.75;4.75
76383;PMS7003;65204;48.606;7.598;2023-04-29T00:43:50;5.00;5.00;4.00
76383;PMS7003;65204;48.606;7.598;2023-04-29T00:44:21;5.00;4.60;4.00
76383;PMS7003;65204;48.606;7.598;2023-04-29T00:44:51;5.00;4.00;3.50
76383;PMS7003;65204;48.606;7.598;2023-04-29T00:45:22;6.00;6.00;5.25
76383;PMS7003;65204;48.606;7.598;2023-04-29T00:45:53;5.25;5.25;4.25
76383;PMS7003;65204;48.606;7.598;2023-04-29T00:46:23;5.00;5.00;4.00
76383;PMS7003;65204;48.606;7.598;2023-04-29T00:46:53;6.75;5.50;4.25
76383;PMS7003;65204;48.606;7.598;2023-04-29T00:47:24;7.00;5.25;5.00
76383;PMS7003;65204;48.606;7.598;2023-04-29T00:47:54;5.00;5.00;4.00
76383;PMS7003;65204;48.606;7.598;2023-04-29T00:48:26;4.00;4.00;4.00
76383;PMS7003;65204;48.606;7.598;2023-04-29T00:48:56;3.00;3.00;3.00
76383;PMS7003;65204;48.606;7.598;2023-04-29T00:49:26;6.00;5.00;4.00
76383;PMS7003;65204;48.606;7.598;2023-04-29T00:49:57;7.00;5.75;4.50
76383;PMS7003;65204;48.606;7.598;2023-04-29T00:50:28;6.00;6.00;5.00
76383;PMS7003;65204;48.606;7.598;2023-04-29T00:50:59;6.80;5.00;4.00
76383;PMS7003;65204;48.606;7.598;2023-04-29T00:51:30;5.80;5.80;5.00
76383;PMS7003;65204;48.606;7.598;2023-04-29T00:52:02;5.20;5.20;4.20
76383;PMS7003;65204;48.606;7.598;2023-04-29T00:52:32;5.00;5.00;4.00
76383;PMS7003;65204;48.606;7.598;2023-04-29T00:53:03;6.20;5.40;4.20
76383;PMS7003;65204;48.606;7.598;2023-04-29T00:53:34;6.75;6.75;5.25
76383;PMS7003;65204;48.606;7.598;2023-04-29T00:54:05;5.25;5.25;5.00
76383;PMS7003;65204;48.606;7.598;2023-04-29T00:54:36;4.60;4.60;4.00
76383;PMS7003;65204;48.606;7.598;2023-04-29T00:55:07;3.80;3.80;3.20
76383;PMS7003;65204;48.606;7.598;2023-04-29T00:55:42;5.20;5.20;4.80
76383;PMS7003;65204;48.606;7.598;2023-04-29T00:56:13;5.60;5.60;4.40
76383;PMS7003;65204;48.606;7.598;2023-04-29T00:56:45;5.00;5.00;4.00
76383;PMS7003;65204;48.606;7.598;2023-04-29T00:57:16;5.80;5.20;4.40
76383;PMS7003;65204;48.606;7.598;2023-04-29T00:57:48;5.40;5.40;4.80
76383;PMS7003;65204;48.606;7.598;2023-04-29T00:58:21;5.20;4.00;4.00
76383;PMS7003;65204;48.606;7.598;2023-04-29T00:58:53;6.60;6.40;5.40
76383;PMS7003;65204;48.606;7.598;2023-04-29T00:59:23;5.25;5.25;3.75
76383;PMS7003;65204;48.606;7.598;2023-04-29T01:00:01;6.20;5.60;5.00
76383;PMS7003;65204;48.606;7.598;2023-04-29T01:00:31;5.25;5.25;4.50
76383;PMS7003;65204;48.606;7.598;2023-04-29T01:01:02;7.00;7.00;6.00
76383;PMS7003;65204;48.606;7.598;2023-04-29T01:01:33;6.00;6.00;5.25
76383;PMS7003;65204;48.606;7.598;2023-04-29T01:02:04;6.60;6.60;5.40
76383;PMS7003;65204;48.606;7.598;2023-04-29T01:02:35;6.60;6.60;5.80
76383;PMS7003;65204;48.606;7.598;2023-04-29T01:03:07;7.20;6.00;5.00
76383;PMS7003;65204;48.606;7.598;2023-04-29T01:03:38;4.00;4.00;4.00
76383;PMS7003;65204;48.606;7.598;2023-04-29T01:04:09;6.20;5.40;5.00
76383;PMS7003;65204;48.606;7.598;2023-04-29T01:04:39;7.25;7.25;6.25
76383;PMS7003;65204;48.606;7.598;2023-04-29T01:05:10;8.25;7.75;5.75
76383;PMS7003;65204;48.606;7.598;2023-04-29T01:05:40;5.00;4.50;4.00
76383;PMS7003;65204;48.606;7.598;2023-04-29T01:06:31;6.40;5.40;5.00
76383;PMS7003;65204;48.606;7.598;2023-04-29T01:07:15;4.80;4.80;4.40
76383;PMS7003;65204;48.606;7.598;2023-04-29T01:07:51;5.20;5.20;5.00
76383;PMS7003;65204;48.606;7.598;2023-04-29T01:08:33;8.00;7.40;6.20
76383;PMS7003;65204;48.606;7.598;2023-04-29T01:10:49;6.00;6.00;5.20
76383;PMS7003;65204;48.606;7.598;2023-04-29T01:11:24;7.20;6.00;5.00
76383;PMS7003;65204;48.606;7.598;2023-04-29T01:12:13;5.80;5.80;5.20
76383;PMS7003;65204;48.606;7.598;2023-04-29T01:13:00;6.00;6.00;5.60
76383;PMS7003;65204;48.606;7.598;2023-04-29T01:13:53;7.80;7.20;6.00
76383;PMS7003;65204;48.606;7.598;2023-04-29T01:14:29;6.00;6.00;5.00
76383;PMS7003;65204;48.606;7.598;2023-04-29T01:15:16;8.20;5.60;5.00
76383;PMS7003;65204;48.606;7.598;2023-04-29T01:15:58;6.60;6.60;5.80
76383;PMS7003;65204;48.606;7.598;2023-04-29T01:16:34;4.80;4.80;4.20
76383;PMS7003;65204;48.606;7.598;2023-04-29T01:17:12;5.80;5.80;5.20
76383;PMS7003;65204;48.606;7.598;2023-04-29T01:17:49;7.20;6.00;5.00
76383;PMS7003;65204;48.606;7.598;2023-04-29T01:18:36;5.80;5.80;4.80
76383;PMS7003;65204;48.606;7.598;2023-04-29T01:19:15;10.00;7.00;6.20
76383;PMS7003;65204;48.606;7.598;2023-04-29T01:19:53;7.00;7.00;6.00
76383;PMS7003;65204;48.606;7.598;2023-04-29T01:20:26;5.20;5.20;4.60
76383;PMS7003;65204;48.606;7.598;2023-04-29T01:20:57;6.20;6.20;6.00
76383;PMS7003;65204;48.606;7.598;2023-04-29T01:21:28;8.00;6.60;6.00
76383;PMS7003;65204;48.606;7.598;2023-04-29T01:22:00;9.00;7.00;6.20
76383;PMS7003;65204;48.606;7.598;2023-04-29T01:22:31;6.50;5.25;4.00
76383;PMS7003;65204;48.606;7.598;2023-04-29T01:23:01;6.25;6.25;5.50
76383;PMS7003;65204;48.606;7.598;2023-04-29T01:23:32;6.00;6.00;5.25
76383;PMS7003;65204;48.606;7.598;2023-04-29T01:24:02;8.00;8.00;6.00
76383;PMS7003;65204;48.606;7.598;2023-04-29T01:24:32;8.25;8.25;6.00
76383;PMS7003;65204;48.606;7.598;2023-04-29T01:25:03;7.75;7.75;5.50
76383;PMS7003;65204;48.606;7.598;2023-04-29T01:25:35;5.00;5.00;5.00
76383;PMS7003;65204;48.606;7.598;2023-04-29T01:26:07;4.20;4.20;4.00
76383;PMS7003;65204;48.606;7.598;2023-04-29T01:26:37;9.00;6.75;6.00
76383;PMS7003;65204;48.606;7.598;2023-04-29T01:31:50;5.00;5.00;4.40
76383;PMS7003;65204;48.606;7.598;2023-04-29T01:35:24;5.60;5.60;4.20
76383;PMS7003;65204;48.606;7.598;2023-04-29T01:36:25;5.20;4.80;4.40
76383;PMS7003;65204;48.606;7.598;2023-04-29T01:37:34;6.80;6.80;5.00
76383;PMS7003;65204;48.606;7.598;2023-04-29T01:40:49;6.20;5.60;4.20
76383;PMS7003;65204;48.606;7.598;2023-04-29T01:41:38;4.60;4.60;4.00
76383;PMS7003;65204;48.606;7.598;2023-04-29T01:42:14;6.20;6.20;5.00
76383;PMS7003;65204;48.606;7.598;2023-04-29T01:43:00;5.60;5.60;5.00
76383;PMS7003;65204;48.606;7.598;2023-04-29T01:43:32;5.40;5.20;5.00
76383;PMS7003;65204;48.606;7.598;2023-04-29T01:44:07;6.00;5.00;4.40
76383;PMS7003;65204;48.606;7.598;2023-04-29T01:44:40;4.20;4.20;4.00
76383;PMS7003;65204;48.606;7.598;2023-04-29T01:45:14;5.00;5.00;4.40
76383;PMS7003;65204;48.606;7.598;2023-04-29T01:45:46;6.60;4.00;3.00
76383;PMS7003;65204;48.606;7.598;2023-04-29T01:46:16;4.00;4.00;2.75
76383;PMS7003;65204;48.606;7.598;2023-04-29T01:46:50;5.00;5.00;4.00
76383;PMS7003;65204;48.606;7.598;2023-04-29T01:47:21;5.00;5.00;5.00
76383;PMS7003;65204;48.606;7.598;2023-04-29T01:47:52;6.60;6.20;5.60
76383;PMS7003;65204;48.606;7.598;2023-04-29T01:48:25;4.00;4.00;3.20
76383;PMS7003;65204;48.606;7.598;2023-04-29T01:48:56;6.50;6.50;5.25
76383;PMS7003;65204;48.606;7.598;2023-04-29T01:49:26;4.00;4.00;4.00
76383;PMS7003;65204;48.606;7.598;2023-04-29T01:49:57;5.60;5.00;4.00
76383;PMS7003;65204;48.606;7.598;2023-04-29T01:50:27;6.00;5.50;5.00
76383;PMS7003;65204;48.606;7.598;2023-04-29T01:50:58;6.50;6.00;5.25
76383;PMS7003;65204;48.606;7.598;2023-04-29T01:51:28;2.75;2.75;2.00
76383;PMS7003;65204;48.606;7.598;2023-04-29T01:51:58;5.25;5.25;4.25
76383;PMS7003;65204;48.606;7.598;2023-04-29T01:52:29;5.00;5.00;4.00
76383;PMS7003;65204;48.606;7.598;2023-04-29T01:52:59;6.00;6.00;5.00
76383;PMS7003;65204;48.606;7.598;2023-04-29T01:53:29;5.00;5.00;5.00
76383;PMS7003;65204;48.606;7.598;2023-04-29T01:54:00;6.00;6.00;4.75
76383;PMS7003;65204;48.606;7.598;2023-04-29T01:54:30;6.00;6.00;4.25
76383;PMS7003;65204;48.606;7.598;2023-04-29T01:55:01;5.00;5.00;4.25
76383;PMS7003;65204;48.606;7.598;2023-04-29T01:55:32;4.60;4.60;4.00
76383;PMS7003;65204;48.606;7.598;2023-04-29T01:56:02;3.00;3.00;3.00
76383;PMS7003;65204;48.606;7.598;2023-04-29T01:56:33;5.00;5.00;4.25
76383;PMS7003;65204;48.606;7.598;2023-04-29T01:57:03;3.25;3.25;3.25
76383;PMS7003;65204;48.606;7.598;2023-04-29T01:57:34;3.00;3.00;3.00
76383;PMS7003;65204;48.606;7.598;2023-04-29T01:58:04;4.25;3.00;2.00
76383;PMS7003;65204;48.606;7.598;2023-04-29T01:58:35;3.00;3.00;3.00
76383;PMS7003;65204;48.606;7.598;2023-04-29T01:59:05;4.00;4.00;3.25
76383;PMS7003;65204;48.606;7.598;2023-04-29T01:59:37;4.00;3.00;3.00
76383;PMS7003;65204;48.606;7.598;2023-04-29T02:00:07;4.25;4.25;4.00
76383;PMS7003;65204;48.606;7.598;2023-04-29T02:00:38;4.00;4.00;3.50
76383;PMS7003;65204;48.606;7.598;2023-04-29T02:01:08;4.00;4.00;3.00
76383;PMS7003;65204;48.606;7.598;2023-04-29T02:01:39;5.25;5.25;4.00
76383;PMS7003;65204;48.606;7.598;2023-04-29T02:02:09;3.75;3.75;3.50
76383;PMS7003;65204;48.606;7.598;2023-04-29T02:02:39;4.00;4.00;3.50
76383;PMS7003;65204;48.606;7.598;2023-04-29T02:03:10;4.00;4.00;3.00
76383;PMS7003;65204;48.606;7.598;2023-04-29T02:03:40;3.50;3.50;3.00
76383;PMS7003;65204;48.606;7.598;2023-04-29T02:04:11;3.00;3.00;2.50
76383;PMS7003;65204;48.606;7.598;2023-04-29T02:04:42;4.00;3.00;2.75
76383;PMS7003;65204;48.606;7.598;2023-04-29T02:05:12;3.50;3.50;3.25
76383;PMS7003;65204;48.606;7.598;2023-04-29T02:05:43;3.00;3.00;2.75
76383;PMS7003;65204;48.606;7.598;2023-04-29T02:06:13;3.00;3.00;2.25
76383;PMS7003;65204;48.606;7.598;2023-04-29T02:06:43;3.75;3.75;3.00
76383;PMS7003;65204;48.606;7.598;2023-04-29T02:07:14;3.00;3.00;2.50
76383;PMS7003;65204;48.606;7.598;2023-04-29T02:07:44;3.00;3.00;2.50
76383;PMS7003;65204;48.606;7.598;2023-04-29T02:08:15;4.75;4.00;3.75
76383;PMS7003;65204;48.606;7.598;2023-04-29T02:08:48;3.20;3.20;3.00
76383;PMS7003;65204;48.606;7.598;2023-04-29T02:09:19;4.25;3.00;2.25
76383;PMS7003;65204;48.606;7.598;2023-04-29T02:09:49;3.00;3.00;3.00
76383;PMS7003;65204;48.606;7.598;2023-04-29T02:10:19;4.00;2.75;2.00
76383;PMS7003;65204;48.606;7.598;2023-04-29T02:10:53;3.00;3.00;2.25
76383;PMS7003;65204;48.606;7.598;2023-04-29T02:11:24;4.60;4.00;3.20
76383;PMS7003;65204;48.606;7.598;2023-04-29T02:11:55;5.00;5.00;4.25
76383;PMS7003;65204;48.606;7.598;2023-04-29T02:12:25;3.25;3.25;2.50
76383;PMS7003;65204;48.606;7.598;2023-04-29T02:12:55;3.25;3.25;3.00
76383;PMS7003;65204;48.606;7.598;2023-04-29T02:13:26;3.25;3.00;2.00
76383;PMS7003;65204;48.606;7.598;2023-04-29T02:13:56;5.75;4.25;3.00
76383;PMS7003;65204;48.606;7.598;2023-04-29T02:14:26;2.75;2.75;2.25
76383;PMS7003;65204;48.606;7.598;2023-04-29T02:14:57;5.00;4.00;3.50
76383;PMS7003;65204;48.606;7.598;2023-04-29T02:15:28;3.00;3.00;3.00
76383;PMS7003;65204;48.606;7.598;2023-04-29T02:16:05;3.25;3.25;2.50
76383;PMS7003;65204;48.606;7.598;2023-04-29T02:16:42;2.40;2.40;1.80
76383;PMS7003;65204;48.606;7.598;2023-04-29T02:17:13;3.20;3.20;3.00
76383;PMS7003;65204;48.606;7.598;2023-04-29T02:17:43;4.50;3.00;2.75
76383;PMS7003;65204;48.606;7.598;2023-04-29T02:18:15;4.00;4.00;3.20
76383;PMS7003;65204;48.606;7.598;2023-04-29T02:18:45;3.75;2.50;2.25
76383;PMS7003;65204;48.606;7.598;2023-04-29T02:19:16;2.50;2.50;2.00
76383;PMS7003;65204;48.606;7.598;2023-04-29T02:19:46;2.25;2.25;2.00
76383;PMS7003;65204;48.606;7.598;2023-04-29T02:20:16;3.00;2.00;2.00
76383;PMS7003;65204;48.606;7.598;2023-04-29T02:20:47;5.75;2.50;2.00
76383;PMS7003;65204;48.606;7.598;2023-04-29T02:21:19;3.00;3.00;2.20
76383;PMS7003;65204;48.606;7.598;2023-04-29T02:21:49;3.50;3.50;2.75
76383;PMS7003;65204;48.606;7.598;2023-04-29T02:22:20;3.50;3.50;2.50
76383;PMS7003;65204;48.606;7.598;2023-04-29T02:22:51;3.00;3.00;2.25
76383;PMS7003;65204;48.606;7.598;2023-04-29T02:23:21;4.00;4.00;3.50
76383;PMS7003;65204;48.606;7.598;2023-04-29T02:23:51;3.75;3.50;3.00
76383;PMS7003;65204;48.606;7.598;2023-04-29T02:24:23;5.00;4.00;3.00
76383;PMS7003;65204;48.606;7.598;2023-04-29T02:24:53;5.50;4.00;3.25
76383;PMS7003;65204;48.606;7.598;2023-04-29T02:25:24;3.00;3.00;3.00
76383;PMS7003;65204;48.606;7.598;2023-04-29T02:25:54;4.50;3.00;2.75
76383;PMS7003;65204;48.606;7.598;2023-04-29T02:26:24;3.25;3.00;2.50
76383;PMS7003;65204;48.606;7.598;2023-04-29T02:26:55;5.25;3.00;2.25
76383;PMS7003;65204;48.606;7.598;2023-04-29T02:27:25;2.00;2.00;2.00
76383;PMS7003;65204;48.606;7.598;2023-04-29T02:27:56;3.00;3.00;2.75
76383;PMS7003;65204;48.606;7.598;2023-04-29T02:28:26;4.75;4.75;3.00
76383;PMS7003;65204;48.606;7.598;2023-04-29T02:28:57;3.00;3.00;2.75
76383;PMS7003;65204;48.606;7.598;2023-04-29T02:29:27;3.00;2.00;2.00
76383;PMS7003;65204;48.606;7.598;2023-04-29T02:29:59;2.80;2.80;2.40
76383;PMS7003;65204;48.606;7.598;2023-04-29T02:30:30;3.25;3.00;3.00
76383;PMS7003;65204;48.606;7.598;2023-04-29T02:31:00;3.25;3.25;3.00
76383;PMS7003;65204;48.606;7.598;2023-04-29T02:31:31;3.00;3.00;2.25
76383;PMS7003;65204;48.606;7.598;2023-04-29T02:32:01;2.50;2.50;2.25
76383;PMS7003;65204;48.606;7.598;2023-04-29T02:32:32;3.00;2.50;2.25
76383;PMS7003;65204;48.606;7.598;2023-04-29T02:33:02;3.00;3.00;2.50
76383;PMS7003;65204;48.606;7.598;2023-04-29T02:33:32;4.25;2.50;2.50
76383;PMS7003;65204;48.606;7.598;2023-04-29T02:34:03;3.00;3.00;2.00
76383;PMS7003;65204;48.606;7.598;2023-04-29T02:34:33;3.75;3.50;3.00
76383;PMS7003;65204;48.606;7.598;2023-04-29T02:35:04;3.75;3.00;3.00
76383;PMS7003;65204;48.606;7.598;2023-04-29T02:35:35;4.40;3.00;3.00
76383;PMS7003;65204;48.606;7.598;2023-04-29T02:36:05;3.00;3.00;3.00
76383;PMS7003;65204;48.606;7.598;2023-04-29T02:36:36;3.00;3.00;3.00
76383;PMS7003;65204;48.606;7.598;2023-04-29T02:37:06;4.00;4.00;3.00
76383;PMS7003;65204;48.606;7.598;2023-04-29T02:37:36;2.25;2.25;2.00
76383;PMS7003;65204;48.606;7.598;2023-04-29T02:38:07;3.75;3.00;3.00
76383;PMS7003;65204;48.606;7.598;2023-04-29T02:38:37;4.00;3.00;2.00
76383;PMS7003;65204;48.606;7.598;2023-04-29T02:39:08;2.75;2.75;2.50
76383;PMS7003;65204;48.606;7.598;2023-04-29T02:39:38;3.50;3.50;2.75
76383;PMS7003;65204;48.606;7.598;2023-04-29T02:40:08;2.50;2.50;2.00
76383;PMS7003;65204;48.606;7.598;2023-04-29T02:40:40;2.00;2.00;2.00
76383;PMS7003;65204;48.606;7.598;2023-04-29T02:41:16;3.60;2.60;2.40
76383;PMS7003;65204;48.606;7.598;2023-04-29T02:41:47;5.20;5.20;4.20
76383;PMS7003;65204;48.606;7.598;2023-04-29T02:42:18;1.50;1.50;1.25
76383;PMS7003;65204;48.606;7.598;2023-04-29T02:42:49;3.40;3.40;3.00
76383;PMS7003;65204;48.606;7.598;2023-04-29T02:43:19;2.75;2.00;1.25
76383;PMS7003;65204;48.606;7.598;2023-04-29T02:43:49;2.25;2.25;2.00
76383;PMS7003;65204;48.606;7.598;2023-04-29T02:44:20;3.50;3.50;3.00
76383;PMS7003;65204;48.606;7.598;2023-04-29T02:44:50;3.25;3.25;2.75
76383;PMS7003;65204;48.606;7.598;2023-04-29T02:45:20;4.00;4.00;4.00
76383;PMS7003;65204;48.606;7.598;2023-04-29T02:45:51;3.25;3.25;3.00
76383;PMS7003;65204;48.606;7.598;2023-04-29T02:46:21;3.75;3.75;3.00
76383;PMS7003;65204;48.606;7.598;2023-04-29T02:46:52;3.00;3.00;2.50
76383;PMS7003;65204;48.606;7.598;2023-04-29T02:47:22;3.00;3.00;2.75
76383;PMS7003;65204;48.606;7.598;2023-04-29T02:47:52;5.75;5.25;3.50
76383;PMS7003;65204;48.606;7.598;2023-04-29T02:48:23;3.50;3.50;3.00
76383;PMS7003;65204;48.606;7.598;2023-04-29T02:48:53;4.75;4.75;4.00
76383;PMS7003;65204;48.606;7.598;2023-04-29T02:49:23;4.00;4.00;4.00
76383;PMS7003;65204;48.606;7.598;2023-04-29T02:49:54;4.00;4.00;3.25
76383;PMS7003;65204;48.606;7.598;2023-04-29T02:50:24;3.75;3.75;3.25
76383;PMS7003;65204;48.606;7.598;2023-04-29T02:50:55;3.00;3.00;3.00
76383;PMS7003;65204;48.606;7.598;2023-04-29T02:51:25;3.25;3.00;2.25
76383;PMS7003;65204;48.606;7.598;2023-04-29T02:51:55;3.00;3.00;3.00
76383;PMS7003;65204;48.606;7.598;2023-04-29T02:52:27;3.00;3.00;3.00
76383;PMS7003;65204;48.606;7.598;2023-04-29T02:52:57;5.00;4.00;2.75
76383;PMS7003;65204;48.606;7.598;2023-04-29T02:53:28;2.75;2.75;2.50
76383;PMS7003;65204;48.606;7.598;2023-04-29T02:53:58;4.00;3.00;3.00
76383;PMS7003;65204;48.606;7.598;2023-04-29T02:54:28;3.50;3.50;3.00
76383;PMS7003;65204;48.606;7.598;2023-04-29T02:54:59;4.00;3.75;3.00
76383;PMS7003;65204;48.606;7.598;2023-04-29T02:55:29;3.00;3.00;2.25
76383;PMS7003;65204;48.606;7.598;2023-04-29T02:55:59;5.00;4.00;3.00
76383;PMS7003;65204;48.606;7.598;2023-04-29T02:56:30;4.00;3.00;3.00
76383;PMS7003;65204;48.606;7.598;2023-04-29T02:57:00;4.50;4.00;4.00
76383;PMS7003;65204;48.606;7.598;2023-04-29T02:57:30;8.00;5.00;4.00
76383;PMS7003;65204;48.606;7.598;2023-04-29T02:58:01;2.25;2.25;2.00
76383;PMS7003;65204;48.606;7.598;2023-04-29T02:58:32;3.00;3.00;3.00
76383;PMS7003;65204;48.606;7.598;2023-04-29T02:59:03;2.00;2.00;1.25
76383;PMS7003;65204;48.606;7.598;2023-04-29T02:59:33;3.00;3.00;3.00
76383;PMS7003;65204;48.606;7.598;2023-04-29T03:00:03;5.00;4.00;3.00
76383;PMS7003;65204;48.606;7.598;2023-04-29T03:00:34;3.00;3.00;2.80
76383;PMS7003;65204;48.606;7.598;2023-04-29T03:01:05;4.00;3.00;3.00
76383;PMS7003;65204;48.606;7.598;2023-04-29T03:01:36;4.75;3.00;3.00
76383;PMS7003;65204;48.606;7.598;2023-04-29T03:02:07;4.40;4.40;4.00
76383;PMS7003;65204;48.606;7.598;2023-04-29T03:02:38;4.00;4.00;4.00
76383;PMS7003;65204;48.606;7.598;2023-04-29T03:03:08;4.00;4.00;3.00
76383;PMS7003;65204;48.606;7.598;2023-04-29T03:03:39;3.60;3.60;3.00
76383;PMS7003;65204;48.606;7.598;2023-04-29T03:04:09;3.00;3.00;3.00
76383;PMS7003;65204;48.606;7.598;2023-04-29T03:04:40;5.00;5.00;4.00
76383;PMS7003;65204;48.606;7.598;2023-04-29T03:05:10;5.00;4.50;3.50
76383;PMS7003;65204;48.606;7.598;2023-04-29T03:05:41;4.50;4.50;3.75
76383;PMS7003;65204;48.606;7.598;2023-04-29T03:06:11;5.00;5.00;5.00
76383;PMS7003;65204;48.606;7.598;2023-04-29T03:06:41;5.75;5.00;4.00
76383;PMS7003;65204;48.606;7.598;2023-04-29T03:07:12;3.25;3.00;2.50
76383;PMS7003;65204;48.606;7.598;2023-04-29T03:07:43;3.50;3.50;3.00
76383;PMS7003;65204;48.606;7.598;2023-04-29T03:08:13;3.50;3.50;3.00
76383;PMS7003;65204;48.606;7.598;2023-04-29T03:08:43;3.75;3.75;3.00
76383;PMS7003;65204;48.606;7.598;2023-04-29T03:09:14;2.00;2.00;1.75
76383;PMS7003;65204;48.606;7.598;2023-04-29T03:09:44;5.00;5.00;4.00
76383;PMS7003;65204;48.606;7.598;2023-04-29T03:10:14;3.00;3.00;2.75
76383;PMS7003;65204;48.606;7.598;2023-04-29T03:10:45;2.00;2.00;2.00
76383;PMS7003;65204;48.606;7.598;2023-04-29T03:11:15;3.25;3.25;3.00
76383;PMS7003;65204;48.606;7.598;2023-04-29T03:11:45;4.00;3.00;2.25
76383;PMS7003;65204;48.606;7.598;2023-04-29T03:12:16;5.00;4.00;3.25
76383;PMS7003;65204;48.606;7.598;2023-04-29T03:12:46;4.00;3.00;2.50
76383;PMS7003;65204;48.606;7.598;2023-04-29T03:13:17;5.00;3.75;3.00
76383;PMS7003;65204;48.606;7.598;2023-04-29T03:13:47;4.00;3.00;2.75
76383;PMS7003;65204;48.606;7.598;2023-04-29T03:14:17;3.00;3.00;2.25
76383;PMS7003;65204;48.606;7.598;2023-04-29T03:14:48;3.50;3.50;3.00
76383;PMS7003;65204;48.606;7.598;2023-04-29T03:15:18;5.00;5.00;4.00
76383;PMS7003;65204;48.606;7.598;2023-04-29T03:15:49;3.25;3.25;2.75
76383;PMS7003;65204;48.606;7.598;2023-04-29T03:16:19;3.00;3.00;3.00
76383;PMS7003;65204;48.606;7.598;2023-04-29T03:16:50;2.80;2.80;2.00
76383;PMS7003;65204;48.606;7.598;2023-04-29T03:17:21;3.75;3.00;2.25
76383;PMS7003;65204;48.606;7.598;2023-04-29T03:17:51;2.25;2.25;2.25